Time;durP1;ratioP1;P1;durP2;ratioP2;P2;SDS_P1;SDS_P2;PMS_P1;PMS_P2;Temp;Humidity;BMP_temperature;BMP_pressure;BME280_temperature;BME280_humidity;BME280_pressure;Samples;Min_cycle;Max_cycle;Signal;HPM_P1;HPM_P2
2023/05/19 00:02:04;;;;;;;18.92;10.65;;;;;;;8.45;100.00;102638.22;4961695;28;20046;-74
2023/05/19 00:04:32;;;;;;;24.00;10.70;;;;;;;8.57;100.00;102637.91;4960743;28;20597;-74
2023/05/19 00:06:59;;;;;;;23.65;10.65;;;;;;;8.43;100.00;102640.03;4958070;28;20047;-74
2023/05/19 00:09:25;;;;;;;19.98;10.90;;;;;;;8.47;100.00;102639.06;4969208;28;20119;-75
2023/05/19 00:11:51;;;;;;;19.67;9.95;;;;;;;8.34;100.00;102637.59;4955979;28;20111;-74
2023/05/19 00:14:19;;;;;;;22.80;11.50;;;;;;;8.30;100.00;102644.78;4967286;28;20034;-75
2023/05/19 00:16:48;;;;;;;26.52;11.23;;;;;;;8.20;100.00;102643.25;4964734;28;20039;-76
2023/05/19 00:19:15;;;;;;;18.25;10.85;;;;;;;8.28;100.00;102646.56;4964854;28;20042;-75
2023/05/19 00:21:41;;;;;;;23.95;10.52;;;;;;;8.24;100.00;102642.28;4976179;28;20122;-75
2023/05/19 00:24:07;;;;;;;18.98;10.45;;;;;;;8.18;100.00;102634.44;4965905;28;20035;-76
2023/05/19 00:26:36;;;;;;;18.30;11.40;;;;;;;8.04;100.00;102648.06;4968731;28;20031;-76
2023/05/19 00:29:05;;;;;;;16.42;9.60;;;;;;;8.28;100.00;102646.56;4966243;28;20043;-76
2023/05/19 00:31:32;;;;;;;22.00;11.15;;;;;;;8.30;100.00;102644.78;4974165;28;20082;-74
2023/05/19 00:34:00;;;;;;;20.33;11.23;;;;;;;8.07;100.00;102642.66;4974093;28;20046;-75
2023/05/19 00:36:26;;;;;;;15.52;10.48;;;;;;;8.11;100.00;102635.50;4968315;28;20030;-75
2023/05/19 00:38:51;;;;;;;21.02;11.07;;;;;;;8.18;100.00;102640.66;4971938;28;20479;-74
2023/05/19 00:41:18;;;;;;;21.23;10.65;;;;;;;8.04;100.00;102635.66;4989177;28;20383;-76
2023/05/19 00:43:43;;;;;;;19.77;11.02;;;;;;;8.29;100.00;102637.72;4965375;28;21153;-74
2023/05/19 00:46:09;;;;;;;23.60;10.98;;;;;;;8.20;100.00;102637.94;4984835;28;20039;-73
2023/05/19 00:48:35;;;;;;;24.50;12.20;;;;;;;8.14;100.00;102632.78;4970792;28;20054;-76
2023/05/19 00:51:05;;;;;;;18.00;9.90;;;;;;;8.18;100.00;102630.00;4971582;28;20030;-75
2023/05/19 00:53:33;;;;;;;23.45;11.23;;;;;;;8.13;100.00;102629.22;4971649;28;20031;-73
2023/05/19 00:56:00;;;;;;;31.73;11.40;;;;;;;7.89;100.00;102625.41;4978186;28;20142;-73
2023/05/19 00:58:29;;;;;;;23.25;10.68;;;;;;;7.98;100.00;102621.63;4974920;28;20038;-75
2023/05/19 01:01:02;;;;;;;24.85;12.15;;;;;;;7.92;100.00;102620.00;4960775;28;20058;-72
2023/05/19 01:03:30;;;;;;;22.30;11.27;;;;;;;8.08;100.00;102622.28;4965794;28;20054;-74
2023/05/19 01:05:56;;;;;;;21.15;10.82;;;;;;;7.95;100.00;102617.28;4974768;28;20466;-73
2023/05/19 01:08:22;;;;;;;26.00;12.50;;;;;;;7.87;100.00;102624.53;4986049;28;20045;-72
2023/05/19 01:10:51;;;;;;;24.38;11.50;;;;;;;7.77;100.00;102628.31;4982881;28;20306;-73
2023/05/19 01:13:17;;;;;;;21.45;11.60;;;;;;;7.87;100.00;102623.66;4969459;28;20050;-75
2023/05/19 01:15:58;;;;;;;24.70;12.88;;;;;;;7.62;100.00;102631.31;4965004;28;20043;-75
2023/05/19 01:18:34;;;;;;;24.70;12.40;;;;;;;7.40;100.00;102636.22;4961682;28;20535;-75
2023/05/19 01:21:35;;;;;;;17.30;10.25;;;;;;;7.74;100.00;102631.06;4972340;28;20097;-75
2023/05/19 01:24:29;;;;;;;22.00;10.85;;;;;;;7.63;100.00;102636.63;4983824;28;20046;-75
2023/05/19 01:27:21;;;;;;;26.42;11.60;;;;;;;7.74;100.00;102623.97;4966568;28;20052;-75
2023/05/19 01:30:17;;;;;;;23.00;11.57;;;;;;;7.47;100.00;102633.41;4972102;28;20042;-75
2023/05/19 01:32:44;;;;;;;24.27;10.73;;;;;;;7.61;100.00;102629.59;4969603;28;20035;-74
2023/05/19 01:35:14;;;;;;;19.17;11.80;;;;;;;7.41;100.00;102630.88;4966549;28;20083;-74
2023/05/19 01:37:40;;;;;;;24.50;12.32;;;;;;;7.60;100.00;102630.50;4966243;28;20077;-73
2023/05/19 01:40:09;;;;;;;22.52;11.52;;;;;;;7.43;100.00;102634.41;4954681;28;20599;-74
2023/05/19 01:42:38;;;;;;;23.98;12.18;;;;;;;7.49;100.00;102634.25;4963080;28;20027;-74
2023/05/19 01:45:10;;;;;;;24.75;11.68;;;;;;;7.64;100.00;102638.38;4964120;28;22199;-74
2023/05/19 01:47:38;;;;;;;20.40;11.27;;;;;;;7.59;100.00;102640.25;4965806;28;20039;-74
2023/05/19 01:50:06;;;;;;;23.33;11.50;;;;;;;7.69;100.00;102641.78;4965474;28;20038;-74
2023/05/19 01:52:32;;;;;;;26.60;11.88;;;;;;;7.72;100.00;102639.03;4964462;28;20215;-74
2023/05/19 01:54:59;;;;;;;29.63;11.30;;;;;;;7.56;100.00;102628.81;4964197;28;20118;-74
2023/05/19 01:57:44;;;;;;;21.10;11.35;;;;;;;7.61;100.00;102635.75;4968901;28;20195;-74
2023/05/19 02:00:16;;;;;;;21.88;11.10;;;;;;;7.57;100.00;102627.91;4961997;28;20065;-74
2023/05/19 02:02:55;;;;;;;21.70;11.27;;;;;;;7.35;100.00;102633.69;4964367;28;20108;-74
2023/05/19 02:05:49;;;;;;;22.52;12.25;;;;;;;7.34;100.00;102636.38;4965252;28;20027;-73
2023/05/19 02:08:47;;;;;;;30.52;12.18;;;;;;;7.32;100.00;102631.06;4960510;28;20036;-75
2023/05/19 02:11:24;;;;;;;28.65;12.50;;;;;;;7.47;100.00;102629.88;4962903;28;20043;-74
2023/05/19 02:13:55;;;;;;;26.58;11.85;;;;;;;7.56;100.00;102618.19;4965843;28;20377;-74
2023/05/19 02:16:26;;;;;;;21.85;11.85;;;;;;;7.17;100.00;102624.31;4957531;28;20038;-75
2023/05/19 02:18:52;;;;;;;25.08;14.07;;;;;;;7.40;100.00;102623.84;4962723;28;20065;-74
2023/05/19 02:21:18;;;;;;;29.92;11.50;;;;;;;7.37;100.00;102615.94;4972785;28;20054;-75
2023/05/19 02:23:44;;;;;;;25.00;11.75;;;;;;;7.33;100.00;102618.69;4963915;28;20045;-73
2023/05/19 02:26:09;;;;;;;24.60;11.75;;;;;;;7.30;100.00;102624.06;4962400;28;20050;-74
2023/05/19 02:28:35;;;;;;;25.40;12.85;;;;;;;7.36;100.00;102608.88;4976004;28;20928;-74
2023/05/19 02:31:01;;;;;;;23.63;12.00;;;;;;;7.20;100.00;102620.72;4965692;28;20035;-74
2023/05/19 02:33:29;;;;;;;27.48;13.27;;;;;;;7.22;100.00;102618.91;4976521;28;20038;-74
2023/05/19 02:35:56;;;;;;;24.98;12.73;;;;;;;7.07;100.00;102620.09;4983838;28;20151;-73
2023/05/19 02:38:22;;;;;;;29.02;14.48;;;;;;;7.00;100.00;102622.00;4966725;28;20118;-74
2023/05/19 02:40:48;;;;;;;31.83;12.63;;;;;;;7.14;100.00;102616.44;4968256;28;20566;-74
2023/05/19 02:43:13;;;;;;;33.88;13.32;;;;;;;7.11;100.00;102618.25;4977458;28;20122;-73
2023/05/19 02:45:39;;;;;;;26.58;13.00;;;;;;;7.06;100.00;102618.34;4948215;28;20070;-74
2023/05/19 02:48:06;;;;;;;27.90;13.05;;;;;;;6.98;100.00;102617.66;4954242;28;20497;-73
2023/05/19 02:50:32;;;;;;;32.75;12.85;;;;;;;7.04;100.00;102614.00;4959463;28;20042;-74
2023/05/19 02:52:57;;;;;;;29.67;12.93;;;;;;;7.00;100.00;102614.03;4951346;28;20034;-73
2023/05/19 02:55:23;;;;;;;28.55;12.77;;;;;;;7.14;100.00;102608.47;4980118;28;20034;-74
2023/05/19 02:57:49;;;;;;;34.80;12.90;;;;;;;7.03;100.00;102609.56;4956927;28;20039;-74
2023/05/19 03:00:15;;;;;;;26.10;13.10;;;;;;;6.83;100.00;102617.91;4967496;28;20130;-73
2023/05/19 03:02:43;;;;;;;27.67;13.90;;;;;;;6.98;100.00;102615.00;4953468;28;20027;-74
2023/05/19 03:05:09;;;;;;;24.77;12.75;;;;;;;7.07;100.00;102613.91;4964500;28;20051;-74
2023/05/19 03:07:35;;;;;;;31.95;14.45;;;;;;;7.08;100.00;102602.41;4957957;28;20039;-74
2023/05/19 03:10:07;;;;;;;32.08;13.05;;;;;;;7.13;100.00;102598.78;4981464;28;20085;-74
2023/05/19 03:12:32;;;;;;;30.02;13.90;;;;;;;7.00;100.00;102603.44;4980869;28;20038;-74
2023/05/19 03:14:59;;;;;;;33.97;12.65;;;;;;;7.09;100.00;102605.03;4967609;28;20031;-73
2023/05/19 03:17:24;;;;;;;27.88;13.32;;;;;;;7.09;100.00;102605.03;4965381;28;20098;-73
2023/05/19 03:19:53;;;;;;;28.48;12.52;;;;;;;6.88;100.00;102606.34;4966322;28;21360;-73
2023/05/19 03:22:19;;;;;;;31.30;14.68;;;;;;;6.86;100.00;102617.88;4970474;28;20039;-75
2023/05/19 03:24:45;;;;;;;20.52;12.82;;;;;;;6.93;100.00;102611.56;4982878;28;20034;-76
2023/05/19 03:27:12;;;;;;;31.98;13.85;;;;;;;6.97;100.00;102608.78;4980038;28;20126;-75
2023/05/19 03:29:37;;;;;;;31.67;14.27;;;;;;;7.05;100.00;102608.66;4963414;28;20030;-73
2023/05/19 03:32:06;;;;;;;28.20;13.30;;;;;;;6.98;100.00;102607.91;4983762;28;20047;-75
2023/05/19 03:34:34;;;;;;;32.17;14.18;;;;;;;6.69;100.00;102604.94;4971375;28;20157;-74
2023/05/19 03:37:01;;;;;;;32.42;15.00;;;;;;;6.59;100.00;102616.63;4979034;28;20551;-75
2023/05/19 03:39:27;;;;;;;33.92;15.10;;;;;;;6.60;100.00;102611.28;4978737;28;20046;-75
2023/05/19 03:41:52;;;;;;;42.70;14.38;;;;;;;6.70;100.00;102614.63;4964730;28;20947;-74
2023/05/19 03:44:18;;;;;;;32.72;14.77;;;;;;;6.75;100.00;102612.78;4975124;28;20723;-75
2023/05/19 03:46:44;;;;;;;33.42;13.93;;;;;;;6.84;100.00;102617.91;4971243;28;20931;-76
2023/05/19 03:49:28;;;;;;;32.22;14.13;;;;;;;7.04;100.00;102614.00;4977673;28;20055;-75
2023/05/19 03:51:57;;;;;;;30.55;15.05;;;;;;;7.14;100.00;102615.56;4972758;28;20211;-75
2023/05/19 03:54:42;;;;;;;34.63;15.23;;;;;;;7.31;100.00;102615.19;4965047;28;20845;-75
2023/05/19 03:57:09;;;;;;;35.95;14.88;;;;;;;7.43;100.00;102615.81;4982947;28;20035;-75
2023/05/19 03:59:36;;;;;;;26.83;13.27;;;;;;;7.95;100.00;102611.09;4966460;28;20052;-74
2023/05/19 04:02:03;;;;;;;30.13;13.55;;;;;;;8.24;100.00;102607.72;4946860;28;20035;-75
2023/05/19 04:04:28;;;;;;;28.60;13.60;;;;;;;8.77;100.00;102601.00;4976609;28;20583;-74
2023/05/19 04:06:54;;;;;;;27.90;13.45;;;;;;;9.08;100.00;102597.47;4970234;28;20047;-75
2023/05/19 04:09:22;;;;;;;28.80;13.18;;;;;;;8.89;100.00;102601.59;4971000;28;20324;-75
2023/05/19 04:11:48;;;;;;;26.00;12.43;;;;;;;8.78;100.00;102608.06;4961831;28;20042;-73
2023/05/19 04:14:14;;;;;;;24.02;12.57;;;;;;;9.80;100.00;102598.84;4962192;28;20038;-73
2023/05/19 04:16:42;;;;;;;22.17;10.85;;;;;;;10.26;100.00;102607.16;4985875;28;20050;-74
2023/05/19 04:19:07;;;;;;;24.45;11.80;;;;;;;9.36;100.00;102612.66;4968874;28;20032;-73
2023/05/19 04:21:35;;;;;;;24.90;12.00;;;;;;;9.45;100.00;102607.94;4974415;28;20039;-74
2023/05/19 04:24:01;;;;;;;23.13;11.13;;;;;;;10.31;100.00;102603.41;4977337;28;20039;-74
2023/05/19 04:26:29;;;;;;;26.58;10.68;;;;;;;10.96;100.00;102595.81;4970907;28;20035;-74
2023/05/19 04:28:55;;;;;;;21.33;10.43;;;;;;;11.38;100.00;102591.50;4975243;28;20412;-73
2023/05/19 04:31:22;;;;;;;19.90;11.35;;;;;;;11.48;100.00;102592.00;4972260;28;20203;-76
2023/05/19 04:33:48;;;;;;;23.45;11.57;;;;;;;11.15;100.00;102603.06;4985380;28;20039;-73
2023/05/19 04:36:16;;;;;;;21.05;11.15;;;;;;;11.45;100.00;102594.81;4966133;28;20039;-74
2023/05/19 04:38:44;;;;;;;20.35;11.15;;;;;;;11.61;100.00;102590.63;4965607;28;20045;-74
2023/05/19 04:41:11;;;;;;;19.75;10.68;;;;;;;10.85;100.00;102596.19;4971808;28;20043;-74
2023/05/19 04:43:40;;;;;;;16.88;10.13;;;;;;;11.06;100.00;102590.06;4978714;28;20039;-74
2023/05/19 04:46:09;;;;;;;21.40;9.98;;;;;;;11.45;100.00;102585.94;4979008;28;20040;-74
2023/05/19 04:48:36;;;;;;;15.45;9.25;;;;;;;11.07;100.00;102586.47;4962562;28;20051;-74
2023/05/19 04:51:02;;;;;;;22.02;10.52;;;;;;;11.68;100.00;102591.22;4980153;28;20735;-73
2023/05/19 04:53:28;;;;;;;15.52;10.20;;;;;;;12.18;100.00;102585.66;4961303;28;20234;-73
2023/05/19 04:55:55;;;;;;;18.98;9.60;;;;;;;13.38;100.00;102573.16;4967986;28;20344;-74
2023/05/19 04:58:24;;;;;;;19.17;9.75;;;;;;;13.49;96.68;102576.19;4978625;28;20034;-74
2023/05/19 05:00:51;;;;;;;13.38;8.90;;;;;;;13.02;97.17;102576.59;4961835;28;20043;-73
2023/05/19 05:03:24;;;;;;;20.30;9.57;;;;;;;13.05;95.39;102578.25;4965219;28;20081;-73
2023/05/19 05:05:51;;;;;;;14.98;9.77;;;;;;;12.83;97.43;102579.22;4989299;28;20037;-74
2023/05/19 05:08:23;;;;;;;16.15;9.50;;;;;;;11.76;100.00;102575.75;4978695;28;20043;-75
2023/05/19 05:10:51;;;;;;;19.65;10.48;;;;;;;11.66;100.00;102585.09;4980895;28;20039;-75
2023/05/19 05:13:20;;;;;;;17.15;9.63;;;;;;;12.51;100.00;102580.66;4976808;28;20092;-75
2023/05/19 05:15:47;;;;;;;23.48;9.85;;;;;;;13.67;97.56;102577.16;4988306;28;20031;-75
2023/05/19 05:18:14;;;;;;;15.57;10.30;;;;;;;12.94;97.54;102578.75;4977411;28;20045;-74
2023/05/19 05:20:41;;;;;;;23.83;10.38;;;;;;;13.68;96.45;102577.06;4972245;28;20047;-75
2023/05/19 05:23:09;;;;;;;18.30;9.52;;;;;;;13.01;100.00;102585.56;4974770;28;20106;-73
2023/05/19 05:25:37;;;;;;;15.98;9.15;;;;;;;13.35;93.58;102575.97;4985953;28;20237;-74
2023/05/19 05:28:05;;;;;;;16.90;10.10;;;;;;;12.38;98.89;102576.78;4975625;28;20043;-73
2023/05/19 05:30:35;;;;;;;18.80;9.90;;;;;;;12.07;100.00;102583.44;4980312;28;20059;-74
2023/05/19 05:33:01;;;;;;;16.83;9.40;;;;;;;12.03;100.00;102588.97;4972853;28;20035;-75
2023/05/19 05:35:35;;;;;;;19.52;8.70;;;;;;;12.35;100.00;102585.81;4985773;28;20066;-74
2023/05/19 05:38:02;;;;;;;17.40;9.45;;;;;;;12.50;100.00;102586.06;4970509;28;20118;-75
2023/05/19 05:40:28;;;;;;;18.25;9.45;;;;;;;12.73;100.00;102590.41;4968962;28;20043;-75
2023/05/19 05:42:54;;;;;;;18.05;9.38;;;;;;;12.69;100.00;102598.56;4974055;28;20102;-75
2023/05/19 05:45:22;;;;;;;22.02;9.98;;;;;;;12.53;100.00;102592.16;4975349;28;20039;-74
2023/05/19 05:47:48;;;;;;;15.90;8.38;;;;;;;12.99;100.00;102586.56;4982159;28;20121;-74
2023/05/19 05:50:15;;;;;;;25.10;9.95;;;;;;;13.24;100.00;102592.56;4970754;28;20061;-74
2023/05/19 05:52:47;;;;;;;17.88;9.52;;;;;;;13.62;100.00;102588.09;4986255;28;20038;-73
2023/05/19 05:55:16;;;;;;;17.60;9.38;;;;;;;13.23;100.00;102584.59;4981448;28;20034;-73
2023/05/19 05:57:43;;;;;;;17.00;9.40;;;;;;;12.47;100.00;102595.09;4955893;28;20166;-74
2023/05/19 06:00:14;;;;;;;16.95;9.15;;;;;;;12.53;100.00;102592.16;4969884;28;20050;-73
2023/05/19 06:02:50;;;;;;;14.95;9.05;;;;;;;12.31;100.00;102597.56;4967704;28;20096;-73
2023/05/19 06:05:18;;;;;;;18.10;8.95;;;;;;;12.51;100.00;102596.72;4962341;28;20122;-73
2023/05/19 06:07:45;;;;;;;17.73;9.05;;;;;;;12.62;100.00;102597.13;4966409;28;20051;-74
2023/05/19 06:10:18;;;;;;;22.65;9.57;;;;;;;12.42;100.00;102597.13;4966602;28;20030;-73
2023/05/19 06:12:44;;;;;;;13.73;8.57;;;;;;;12.62;100.00;102593.56;4965829;28;20073;-74
2023/05/19 06:15:10;;;;;;;15.57;9.60;;;;;;;13.12;100.00;102585.94;4962147;28;20047;-74
2023/05/19 06:17:59;;;;;;;23.17;10.70;;;;;;;13.34;100.00;102588.50;4964923;28;20074;-73
2023/05/19 06:20:24;;;;;;;14.60;8.88;;;;;;;13.66;100.00;102578.97;4970723;28;20047;-74
2023/05/19 06:22:50;;;;;;;17.20;9.38;;;;;;;13.35;99.85;102586.69;4967996;28;20034;-74
2023/05/19 06:25:19;;;;;;;17.25;9.05;;;;;;;13.90;98.13;102581.34;4968177;28;20046;-73
2023/05/19 06:27:45;;;;;;;15.48;9.05;;;;;;;14.39;93.20;102574.38;4978140;28;20031;-73
2023/05/19 06:30:12;;;;;;;18.13;9.05;;;;;;;14.29;92.10;102577.63;4956652;28;20043;-73
2023/05/19 06:32:48;;;;;;;14.02;8.80;;;;;;;14.37;92.34;102591.53;4966682;28;20061;-73
2023/05/19 06:35:14;;;;;;;17.42;8.02;;;;;;;14.87;90.01;102585.38;4967543;28;20981;-74
2023/05/19 06:37:47;;;;;;;17.40;8.35;;;;;;;14.74;86.20;102588.69;4966924;28;20038;-73
2023/05/19 06:40:15;;;;;;;17.73;8.70;;;;;;;14.71;87.58;102583.50;4967839;28;20050;-73
2023/05/19 06:42:42;;;;;;;14.20;7.93;;;;;;;14.80;88.24;102594.69;4965641;28;20031;-73
2023/05/19 06:45:21;;;;;;;18.20;8.43;;;;;;;14.66;87.72;102584.66;4970349;28;21345;-72
2023/05/19 06:47:49;;;;;;;13.05;7.20;;;;;;;14.36;84.88;102579.94;4967665;28;20074;-72
2023/05/19 06:50:16;;;;;;;17.95;8.27;;;;;;;14.40;85.83;102586.00;4969749;28;20700;-73
2023/05/19 06:52:43;;;;;;;16.55;8.43;;;;;;;14.79;87.54;102591.13;4950258;28;20038;-73
2023/05/19 06:55:08;;;;;;;16.85;8.57;;;;;;;14.66;86.55;102579.28;4969209;28;20043;-73
2023/05/19 06:57:36;;;;;;;19.25;8.30;;;;;;;14.75;88.10;102584.19;4984258;28;20328;-72
2023/05/19 07:00:12;;;;;;;18.77;8.35;;;;;;;15.24;84.22;102574.34;4969472;28;20158;-73
2023/05/19 07:02:40;;;;;;;12.45;7.68;;;;;;;15.45;83.52;102579.47;4969072;28;21112;-72
2023/05/19 07:05:07;;;;;;;16.17;7.40;;;;;;;15.22;79.30;102578.94;4967797;28;20494;-72
2023/05/19 07:07:36;;;;;;;11.00;7.78;;;;;;;14.92;83.13;102584.16;4966179;28;20030;-74
2023/05/19 07:10:04;;;;;;;13.55;7.70;;;;;;;14.81;86.60;102586.56;4986911;28;20043;-74
2023/05/19 07:12:32;;;;;;;14.45;6.97;;;;;;;15.11;84.66;102580.47;4965346;28;20100;-74
2023/05/19 07:14:57;;;;;;;14.98;7.28;;;;;;;14.86;82.73;102575.53;4968846;28;20039;-75
2023/05/19 07:17:24;;;;;;;13.27;7.22;;;;;;;14.82;80.74;102576.69;4959953;28;20675;-75
2023/05/19 07:19:50;;;;;;;17.02;8.88;;;;;;;14.97;81.65;102571.34;4965305;28;20271;-73
2023/05/19 07:22:17;;;;;;;18.88;7.43;;;;;;;15.20;80.70;102569.22;4968042;28;20923;-74
2023/05/19 07:24:43;;;;;;;19.52;7.10;;;;;;;15.38;81.40;102567.34;4966109;28;20046;-74
2023/05/19 07:27:09;;;;;;;16.27;6.10;;;;;;;15.51;76.45;102566.56;4965521;28;20172;-75
2023/05/19 07:29:35;;;;;;;15.30;6.63;;;;;;;15.52;75.46;102573.66;4963910;28;20028;-74
2023/05/19 07:32:01;;;;;;;14.27;6.45;;;;;;;15.31;75.32;102566.78;4962606;28;20037;-74
2023/05/19 07:34:26;;;;;;;13.25;6.38;;;;;;;15.83;72.05;102565.72;4962604;28;20765;-74
2023/05/19 07:36:52;;;;;;;15.70;6.57;;;;;;;16.14;71.70;102565.63;4965737;28;20035;-74
2023/05/19 07:39:18;;;;;;;11.73;6.13;;;;;;;15.99;72.71;102575.47;4966939;28;20031;-74
2023/05/19 07:41:51;;;;;;;10.93;5.93;;;;;;;16.20;69.63;102569.78;4965070;28;20043;-74
2023/05/19 07:44:20;;;;;;;11.18;5.90;;;;;;;16.52;70.40;102571.41;4967746;28;20043;-74
2023/05/19 07:46:46;;;;;;;13.50;6.10;;;;;;;16.81;68.61;102564.25;4965596;28;20118;-72
2023/05/19 07:49:12;;;;;;;14.63;5.93;;;;;;;16.42;66.85;102561.31;4966813;28;20058;-74
2023/05/19 07:51:37;;;;;;;15.15;5.70;;;;;;;16.90;69.14;102565.50;4969210;28;20763;-75
2023/05/19 07:54:07;;;;;;;13.02;5.80;;;;;;;16.94;67.16;102569.75;4982587;28;20042;-74
2023/05/19 07:56:32;;;;;;;15.80;6.03;;;;;;;16.91;65.21;102569.06;4967204;28;20027;-75
2023/05/19 07:59:01;;;;;;;12.80;5.13;;;;;;;16.47;68.50;102568.16;4962424;28;20035;-72
2023/05/19 08:01:28;;;;;;;12.25;5.43;;;;;;;16.40;68.40;102569.47;4968565;28;20050;-75
2023/05/19 08:03:54;;;;;;;17.08;5.40;;;;;;;16.85;65.17;102564.06;4965426;28;20286;-73
2023/05/19 08:06:20;;;;;;;12.50;5.25;;;;;;;17.11;64.70;102557.91;4967189;28;20039;-75
2023/05/19 08:08:46;;;;;;;15.10;5.20;;;;;;;17.22;62.35;102551.81;4970099;28;20046;-73
2023/05/19 08:11:11;;;;;;;14.52;4.63;;;;;;;17.61;61.76;102551.06;4966967;28;20042;-72
2023/05/19 08:13:37;;;;;;;12.65;4.90;;;;;;;17.72;63.48;102548.56;4965195;28;20043;-75
2023/05/19 08:16:08;;;;;;;10.65;5.07;;;;;;;17.54;64.84;102544.34;4965748;28;20578;-73
2023/05/19 08:18:38;;;;;;;16.10;4.93;;;;;;;18.15;60.13;102547.53;4981498;28;21004;-75
2023/05/19 08:21:07;;;;;;;13.73;4.82;;;;;;;17.46;60.54;102549.38;4965449;28;20081;-74
2023/05/19 08:23:32;;;;;;;8.55;4.53;;;;;;;17.53;63.01;102542.63;4963887;28;20497;-74
2023/05/19 08:25:58;;;;;;;11.05;4.47;;;;;;;17.38;60.67;102546.34;4968111;28;20030;-75
2023/05/19 08:28:24;;;;;;;16.25;5.32;;;;;;;17.63;61.38;102543.75;4965226;28;20035;-72
2023/05/19 08:30:53;;;;;;;12.15;4.40;;;;;;;17.11;62.16;102541.72;4966524;28;20065;-72
2023/05/19 08:33:20;;;;;;;13.57;4.63;;;;;;;17.32;61.81;102545.75;4967938;28;20173;-75
2023/05/19 08:35:47;;;;;;;10.10;4.90;;;;;;;17.45;61.44;102537.72;4968558;28;20035;-75
2023/05/19 08:38:12;;;;;;;11.50;5.13;;;;;;;18.40;59.52;102525.94;4970040;28;20039;-74
2023/05/19 08:40:42;;;;;;;9.00;4.13;;;;;;;18.18;60.03;102523.03;4968073;28;20047;-76
2023/05/19 08:43:10;;;;;;;8.13;4.30;;;;;;;17.86;58.87;102520.66;4966347;28;20074;-76
2023/05/19 08:45:41;;;;;;;13.52;4.38;;;;;;;17.78;58.66;102525.72;4967133;28;20133;-73
2023/05/19 08:48:07;;;;;;;8.80;4.05;;;;;;;17.97;57.44;102512.72;4968918;28;20129;-75
2023/05/19 08:50:38;;;;;;;16.40;4.57;;;;;;;18.37;56.20;102513.53;4969610;28;20106;-73
2023/05/19 08:53:14;;;;;;;14.93;4.22;;;;;;;18.19;58.20;102516.66;4967772;28;20045;-75
2023/05/19 08:56:10;;;;;;;8.23;3.55;;;;;;;17.82;57.53;102503.81;4976079;28;20047;-75
2023/05/19 08:58:42;;;;;;;8.80;3.47;;;;;;;17.81;56.75;102503.91;4965068;28;20138;-73
2023/05/19 09:01:08;;;;;;;11.50;3.50;;;;;;;17.66;55.08;102502.19;4963910;28;20031;-74
2023/05/19 09:03:37;;;;;;;8.70;3.85;;;;;;;17.18;56.65;102499.94;4969032;28;20142;-73
2023/05/19 09:06:07;;;;;;;9.70;3.28;;;;;;;17.73;55.98;102488.25;4968826;28;20042;-74
2023/05/19 09:08:36;;;;;;;9.38;3.85;;;;;;;17.58;57.67;102500.91;4965589;28;20045;-73
2023/05/19 09:11:02;;;;;;;8.75;3.85;;;;;;;17.86;54.00;102493.66;4946300;28;20159;-74
2023/05/19 09:13:27;;;;;;;10.25;2.97;;;;;;;17.98;57.00;102494.69;4964653;28;20110;-73
2023/05/19 09:15:55;;;;;;;9.23;3.67;;;;;;;17.96;53.82;102492.06;4961561;28;20404;-74
2023/05/19 09:18:22;;;;;;;8.15;2.92;;;;;;;17.59;51.48;102491.81;4981877;28;20034;-74
2023/05/19 09:20:48;;;;;;;11.13;3.50;;;;;;;17.58;51.95;102500.91;4965149;28;20106;-74
2023/05/19 09:23:17;;;;;;;11.18;2.90;;;;;;;17.97;52.28;102493.81;4969493;28;20039;-74
2023/05/19 09:25:48;;;;;;;12.27;3.53;;;;;;;17.96;50.37;102486.66;4965621;28;20031;-74
2023/05/19 09:28:13;;;;;;;11.40;3.67;;;;;;;17.99;52.16;102482.91;4970644;28;20034;-74
2023/05/19 09:30:39;;;;;;;11.65;3.72;;;;;;;18.74;53.38;102483.94;4962949;28;20512;-74
2023/05/19 09:33:08;;;;;;;11.75;3.47;;;;;;;18.13;52.38;102487.38;4965173;28;20042;-75
2023/05/19 09:35:36;;;;;;;8.15;2.60;;;;;;;17.85;52.56;102478.44;4969023;28;20113;-74
2023/05/19 09:38:01;;;;;;;9.07;3.65;;;;;;;17.13;52.44;102477.81;4955830;28;20035;-76
2023/05/19 09:40:27;;;;;;;9.90;3.70;;;;;;;17.52;53.66;102477.03;4981924;28;20039;-73
2023/05/19 09:42:53;;;;;;;8.23;2.72;;;;;;;18.03;52.59;102471.81;4969742;28;20038;-74
2023/05/19 09:45:19;;;;;;;11.85;3.35;;;;;;;18.54;53.96;102470.97;4967475;28;20039;-76
2023/05/19 09:47:44;;;;;;;14.25;4.28;;;;;;;18.16;52.51;102477.19;4963975;28;20161;-75
2023/05/19 09:50:12;;;;;;;7.68;3.55;;;;;;;18.72;50.64;102468.78;4980149;28;20445;-76
2023/05/19 09:52:39;;;;;;;14.10;3.90;;;;;;;18.48;51.38;102468.69;4969511;28;20049;-76
2023/05/19 09:55:11;;;;;;;13.40;3.50;;;;;;;18.40;51.76;102466.53;4970232;28;20046;-74
2023/05/19 09:57:38;;;;;;;;;;;;;;;18.55;53.64;102461.88;4967424;28;20030;-74
2023/05/19 10:00:13;;;;;;;13.93;4.00;;;;;;;18.49;51.47;102462.31;4965947;28;19928;-73
2023/05/19 10:02:43;;;;;;;7.13;2.75;;;;;;;18.47;51.41;102456.13;4973088;28;20047;-74
2023/05/19 10:05:20;;;;;;;10.07;3.40;;;;;;;18.62;50.23;102452.34;4986889;28;20039;-74
2023/05/19 10:07:53;;;;;;;10.52;3.20;;;;;;;19.17;53.66;102461.88;4969641;28;20037;-74
2023/05/19 10:10:20;;;;;;;13.23;3.65;;;;;;;18.81;50.71;102457.31;4985592;28;20328;-73
2023/05/19 10:12:49;;;;;;;6.70;3.17;;;;;;;18.80;51.50;102461.88;4984154;28;20051;-75
2023/05/19 10:15:20;;;;;;;6.63;3.08;;;;;;;18.76;53.50;102462.19;4970100;28;20123;-77
2023/05/19 10:17:50;;;;;;;8.75;2.90;;;;;;;18.68;53.46;102459.19;4971306;28;20047;-76
2023/05/19 10:20:16;;;;;;;12.15;3.05;;;;;;;19.52;49.03;102447.56;4977108;28;20035;-76
2023/05/19 10:22:44;;;;;;;6.75;2.75;;;;;;;19.34;48.84;102449.81;4988498;28;20031;-76
2023/05/19 10:25:13;;;;;;;13.57;3.47;;;;;;;19.52;50.14;102450.25;4985407;28;20037;-76
2023/05/19 10:27:48;;;;;;;11.65;3.13;;;;;;;18.97;50.29;102449.81;4983663;28;20042;-75
2023/05/19 10:30:19;;;;;;;7.22;3.00;;;;;;;18.54;49.33;102460.16;4984855;28;20046;-75
2023/05/19 10:32:50;;;;;;;10.88;3.40;;;;;;;19.11;51.87;102452.38;4988519;28;20039;-75
2023/05/19 10:35:41;;;;;;;11.93;3.95;;;;;;;18.69;50.01;102445.56;4983453;28;21459;-75
2023/05/19 10:38:19;;;;;;;6.72;2.97;;;;;;;18.75;49.73;102438.84;4998516;28;20035;-74
2023/05/19 10:41:07;;;;;;;10.33;3.40;;;;;;;19.24;50.34;102436.13;4985119;28;21013;-75
2023/05/19 10:44:08;;;;;;;11.02;3.25;;;;;;;19.28;53.09;102432.22;4984212;28;20418;-75
2023/05/19 10:46:35;;;;;;;14.00;4.15;;;;;;;18.97;48.11;102430.91;4977348;28;20290;-75
2023/05/19 10:49:01;;;;;;;10.98;3.35;;;;;;;19.02;51.29;102428.72;4984128;28;20051;-75
2023/05/19 10:51:31;;;;;;;12.10;3.42;;;;;;;19.35;51.01;102433.47;4980447;28;20043;-74
2023/05/19 10:53:57;;;;;;;8.18;3.47;;;;;;;18.93;51.59;102432.13;4982836;28;20042;-76
2023/05/19 10:56:29;;;;;;;7.82;3.47;;;;;;;19.73;52.78;102432.44;4996505;28;20089;-75
2023/05/19 10:58:55;;;;;;;12.85;3.67;;;;;;;18.88;49.65;102427.03;4991955;28;20636;-75
2023/05/19 11:01:23;;;;;;;15.77;3.53;;;;;;;19.12;51.87;102427.06;4986808;28;20059;-75
2023/05/19 11:03:58;;;;;;;9.95;3.95;;;;;;;18.89;49.75;102427.91;4971926;28;20038;-75
2023/05/19 11:06:29;;;;;;;7.43;3.67;;;;;;;18.40;49.05;102434.09;4974689;28;20424;-74
2023/05/19 11:09:03;;;;;;;9.98;3.97;;;;;;;18.86;49.44;102420.00;4977487;28;20544;-75
2023/05/19 11:11:47;;;;;;;8.77;3.15;;;;;;;18.79;50.71;102426.84;4972124;28;20046;-75
2023/05/19 11:14:18;;;;;;;7.85;3.53;;;;;;;19.12;48.80;102415.38;4951155;28;20038;-74
2023/05/19 11:16:58;;;;;;;7.22;3.55;;;;;;;19.49;50.80;102418.03;4972457;28;20041;-74
2023/05/19 11:19:31;;;;;;;12.77;3.42;;;;;;;19.12;47.73;102409.97;4969022;28;20513;-75
2023/05/19 11:22:07;;;;;;;8.15;3.38;;;;;;;18.79;48.46;102427.72;4973473;28;20042;-76
2023/05/19 11:24:52;;;;;;;11.40;3.42;;;;;;;18.97;49.21;102422.78;4971444;28;20039;-75